Аэропорт: Нижневартовск. Нижневартовск

ICAO: USNN

METAR:
2018/11/19 10:00
USNN 191000Z 12004MPS 5000 -SN OVC034 M11/M13 Q1025 R21/450445 NOSIG RMK QFE764
METAR:
2018/11/19 09:21
TAF USNN 190800Z 1909/2009 12003MPS 3000 -SN BR BKN010 OVC030 
      TEMPO 1909/1912 12005MPS 2000 SHSN BKN007 SCT017CB 
      TEMPO 1912/1918 1000 SHSN SCT004 BKN015CB 
      BECMG 2000/2002 20003MPS